createdAt,value
2023-05-26T00:02:26.364Z,100711.19
2023-05-26T00:04:59.591Z,100718.16
2023-05-26T00:07:34.114Z,100712.06
2023-05-26T00:10:04.995Z,100710.38
2023-05-26T00:12:34.755Z,100713.84
2023-05-26T00:15:04.433Z,100712.94
2023-05-26T00:17:34.076Z,100710.34
2023-05-26T00:20:05.612Z,100707.66
2023-05-26T00:22:38.810Z,100712.00
2023-05-26T00:25:09.685Z,100719.00
2023-05-26T00:27:39.326Z,100712.75
2023-05-26T00:30:11.772Z,100716.22
2023-05-26T00:32:41.778Z,100714.44
2023-05-26T00:35:12.579Z,100720.53
2023-05-26T00:37:44.788Z,100724.88
2023-05-26T00:40:15.905Z,100716.94
2023-05-26T00:42:45.816Z,100730.09
2023-05-26T00:45:15.697Z,100718.75
2023-05-26T00:47:45.568Z,100722.28
2023-05-26T00:50:18.523Z,100714.44
2023-05-26T00:52:51.201Z,100715.38
2023-05-26T00:55:22.663Z,100715.41
2023-05-26T00:57:52.765Z,100714.56
2023-05-26T01:00:24.030Z,100720.81
2023-05-26T01:03:00.578Z,100712.09
2023-05-26T01:05:30.401Z,100713.91
2023-05-26T01:08:03.857Z,100714.88
2023-05-26T01:10:34.141Z,100719.34
2023-05-26T01:13:08.872Z,100717.66
2023-05-26T01:15:44.804Z,100717.72
2023-05-26T01:18:18.370Z,100711.66
2023-05-26T01:20:55.263Z,100709.94
2023-05-26T01:24:02.922Z,100711.78
2023-05-26T01:26:41.308Z,100712.69
2023-05-26T01:29:16.365Z,100703.97
2023-05-26T01:31:48.341Z,100705.88
2023-05-26T01:34:18.022Z,100702.41
2023-05-26T01:36:47.639Z,100706.03
2023-05-26T01:39:17.736Z,100702.56
2023-05-26T01:41:52.611Z,100706.13
2023-05-26T01:44:30.584Z,100705.28
2023-05-26T01:47:01.601Z,100711.47
2023-05-26T01:49:36.771Z,100707.97
2023-05-26T01:52:09.453Z,100713.31
2023-05-26T01:54:46.783Z,100705.41
2023-05-26T01:57:18.527Z,100705.47
2023-05-26T01:59:55.761Z,100708.97
2023-05-26T02:02:25.533Z,100710.75
2023-05-26T02:04:57.247Z,100713.41
2023-05-26T02:07:26.856Z,100719.53
2023-05-26T02:09:57.733Z,100716.03
2023-05-26T02:12:27.408Z,100719.53
2023-05-26T02:15:01.821Z,100723.94
2023-05-26T02:17:32.776Z,100719.56
2023-05-26T02:20:04.622Z,100727.47
2023-05-26T02:22:34.857Z,100729.22
2023-05-26T02:25:04.547Z,100730.16
2023-05-26T02:27:34.194Z,100731.06
2023-05-26T02:30:09.098Z,100730.16
2023-05-26T02:32:39.230Z,100726.59
2023-05-26T02:35:10.752Z,100726.63
2023-05-26T02:37:43.414Z,100739.00
2023-05-26T02:40:13.936Z,100733.69
2023-05-26T02:42:43.600Z,100743.38
2023-05-26T02:45:16.080Z,100739.84
2023-05-26T02:47:45.775Z,100737.22
2023-05-26T02:50:19.722Z,100741.63
2023-05-26T02:52:49.315Z,100739.00
2023-05-26T02:55:19.774Z,100732.00
2023-05-26T02:57:49.465Z,100739.94
2023-05-26T03:00:23.830Z,100735.53
2023-05-26T03:02:53.525Z,100739.94
2023-05-26T03:05:23.239Z,100739.97
2023-05-26T03:07:52.883Z,100731.19
2023-05-26T03:10:22.671Z,100738.25
2023-05-26T03:12:52.306Z,100733.88
2023-05-26T03:15:24.520Z,100738.28
2023-05-26T03:17:54.283Z,100747.97
2023-05-26T03:20:25.074Z,100746.22
2023-05-26T03:22:56.729Z,100746.22
2023-05-26T03:25:26.646Z,100750.63
2023-05-26T03:27:56.746Z,100747.13
2023-05-26T03:30:29.574Z,100748.94
2023-05-26T03:33:02.081Z,100737.53
2023-05-26T03:35:32.779Z,100740.16
2023-05-26T03:38:02.623Z,100741.06
2023-05-26T03:40:32.213Z,100736.69
2023-05-26T03:43:02.946Z,100741.97
2023-05-26T03:45:35.291Z,100749.03
2023-05-26T03:48:05.761Z,100752.59
2023-05-26T03:50:35.466Z,100754.38
2023-05-26T03:53:05.276Z,100754.41
2023-05-26T03:55:37.784Z,100757.91
2023-05-26T03:58:07.986Z,100750.03
2023-05-26T04:00:40.282Z,100761.50
2023-05-26T04:03:10.031Z,100763.28
2023-05-26T04:05:39.834Z,100767.66
2023-05-26T04:08:09.607Z,100768.53
2023-05-26T04:10:39.717Z,100769.41
2023-05-26T04:13:09.384Z,100768.47
2023-05-26T04:15:41.679Z,100766.72
2023-05-26T04:18:11.621Z,100771.97
2023-05-26T04:20:44.775Z,100775.22
2023-05-26T04:23:14.579Z,100778.19
2023-05-26T04:25:44.833Z,100791.91
2023-05-26T04:28:15.414Z,100787.56
2023-05-26T04:30:47.724Z,100791.88
2023-05-26T04:33:17.672Z,100798.78
2023-05-26T04:35:49.692Z,100802.03
2023-05-26T04:38:21.742Z,100804.41
2023-05-26T04:40:51.581Z,100798.41
2023-05-26T04:43:28.931Z,100804.63
2023-05-26T04:46:03.911Z,100805.28
2023-05-26T04:48:35.538Z,100814.22
2023-05-26T04:51:05.159Z,100820.63
2023-05-26T04:53:35.733Z,100819.19
2023-05-26T04:56:06.907Z,100819.31
2023-05-26T04:58:39.517Z,100821.28
2023-05-26T05:01:12.794Z,100812.34
2023-05-26T05:03:44.529Z,100805.34
2023-05-26T05:06:16.112Z,100807.66
2023-05-26T05:08:45.913Z,100811.56
2023-05-26T05:11:15.954Z,100820.06
2023-05-26T05:13:45.583Z,100813.00
2023-05-26T05:16:17.993Z,100815.31
2023-05-26T05:18:47.720Z,100801.31
2023-05-26T05:21:17.554Z,100813.28
2023-05-26T05:23:47.850Z,100810.16
2023-05-26T05:26:19.380Z,100827.94
2023-05-26T05:28:49.016Z,100829.44
2023-05-26T05:31:31.226Z,100828.44
2023-05-26T05:34:00.824Z,100834.97
2023-05-26T05:36:31.748Z,100845.19
2023-05-26T05:39:01.785Z,100845.72
2023-05-26T05:41:31.484Z,100853.28
2023-05-26T05:44:01.897Z,100856.63
2023-05-26T05:46:34.806Z,100855.41
2023-05-26T05:49:05.644Z,100860.25
2023-05-26T05:51:35.248Z,100866.22
2023-05-26T05:54:05.883Z,100866.41
2023-05-26T05:56:35.656Z,100860.84
2023-05-26T05:59:05.436Z,100854.59
2023-05-26T06:01:38.028Z,100861.22
2023-05-26T06:04:07.837Z,100869.50
2023-05-26T06:06:39.453Z,100867.72
2023-05-26T06:09:09.204Z,100865.78
2023-05-26T06:11:39.725Z,100867.84
2023-05-26T06:14:11.342Z,100863.63
2023-05-26T06:16:52.792Z,100868.09
2023-05-26T06:19:22.512Z,100861.50
2023-05-26T06:21:53.177Z,100871.28
2023-05-26T06:24:22.756Z,100874.19
2023-05-26T06:26:52.417Z,100875.75
2023-05-26T06:29:22.119Z,100869.69
2023-05-26T06:31:55.838Z,100880.47
2023-05-26T06:34:26.738Z,100873.50
2023-05-26T06:36:58.778Z,100871.84
2023-05-26T06:39:29.191Z,100878.13
2023-05-26T06:41:58.781Z,100884.19
2023-05-26T06:44:29.757Z,100890.59
2023-05-26T06:47:02.771Z,100876.69
2023-05-26T06:49:35.112Z,100881.50
2023-05-26T06:52:06.745Z,100883.56
2023-05-26T06:54:36.379Z,100892.91
2023-05-26T06:57:06.673Z,100878.88
2023-05-26T06:59:36.280Z,100890.78
2023-05-26T07:02:08.592Z,100880.03
2023-05-26T07:04:38.327Z,100887.22
2023-05-26T07:07:08.149Z,100899.41
2023-05-26T07:09:38.774Z,100881.31
2023-05-26T07:12:10.377Z,100881.94
2023-05-26T07:14:39.997Z,100880.88
2023-05-26T07:17:13.141Z,100883.28
2023-05-26T07:19:43.718Z,100886.06
2023-05-26T07:22:13.322Z,100892.28
2023-05-26T07:24:42.955Z,100885.91
2023-05-26T07:27:14.793Z,100896.31
2023-05-26T07:29:46.130Z,100891.06
2023-05-26T07:32:18.828Z,100892.44
2023-05-26T07:34:48.558Z,100891.94
2023-05-26T07:37:18.753Z,100897.88
2023-05-26T07:39:48.437Z,100908.66
2023-05-26T07:42:18.113Z,100902.13
2023-05-26T07:44:47.810Z,100900.19
2023-05-26T07:47:20.085Z,100896.28
2023-05-26T07:49:50.856Z,100905.09
2023-05-26T07:52:20.551Z,100905.44
2023-05-26T07:54:50.145Z,100910.09
2023-05-26T07:57:29.497Z,100911.38
2023-05-26T08:00:01.273Z,100907.00
2023-05-26T08:02:33.976Z,100911.03
2023-05-26T08:05:04.287Z,100912.34
2023-05-26T08:07:33.938Z,100922.78
2023-05-26T08:10:03.591Z,100916.44
2023-05-26T08:12:35.734Z,100911.38
2023-05-26T08:15:07.752Z,100913.13
2023-05-26T08:17:42.018Z,100912.41
2023-05-26T08:20:12.778Z,100914.59
2023-05-26T08:22:42.747Z,100902.41
2023-05-26T08:25:15.757Z,100913.28
2023-05-26T08:27:45.526Z,100925.97
2023-05-26T08:30:15.761Z,100907.66
2023-05-26T08:32:48.811Z,100906.59
2023-05-26T08:35:18.643Z,100913.41
2023-05-26T08:37:48.218Z,100913.13
2023-05-26T08:40:18.653Z,100919.91
2023-05-26T08:42:53.470Z,100912.03
2023-05-26T08:45:23.783Z,100927.00
2023-05-26T08:47:59.160Z,100918.81
2023-05-26T08:50:29.740Z,100910.88
2023-05-26T08:55:51.811Z,100910.81
2023-05-26T08:58:24.039Z,100915.94
2023-05-26T09:00:53.870Z,100907.81
2023-05-26T09:03:26.335Z,100914.63
2023-05-26T09:05:57.567Z,100908.81
2023-05-26T09:08:27.953Z,100909.44
2023-05-26T09:10:58.774Z,100895.44
2023-05-26T09:13:29.859Z,100897.50
2023-05-26T09:16:10.009Z,100898.28
2023-05-26T09:18:49.574Z,100892.66
2023-05-26T09:21:19.940Z,100890.81
2023-05-26T09:23:58.204Z,100898.28
2023-05-26T09:26:32.740Z,100894.44
2023-05-26T09:29:03.085Z,100895.41
2023-05-26T09:31:43.834Z,100892.41
2023-05-26T09:34:18.604Z,100879.28
2023-05-26T09:36:48.329Z,100894.59
2023-05-26T09:39:18.058Z,100886.50
2023-05-26T09:41:49.365Z,100890.50
2023-05-26T09:44:20.950Z,100894.19
2023-05-26T09:46:54.004Z,100900.47
2023-05-26T09:49:26.541Z,100895.03
2023-05-26T09:52:10.412Z,100893.84
2023-05-26T09:54:43.437Z,100877.97
2023-05-26T09:57:15.898Z,100883.19
2023-05-26T09:59:52.098Z,100879.50
2023-05-26T10:02:23.723Z,100884.97
2023-05-26T10:04:57.798Z,100896.75
2023-05-26T10:07:28.449Z,100891.31
2023-05-26T10:10:02.809Z,100888.91
2023-05-26T10:12:34.600Z,100885.97
2023-05-26T10:15:06.766Z,100896.13
2023-05-26T10:17:37.758Z,100892.44
2023-05-26T10:20:15.257Z,100899.34
2023-05-26T10:22:52.910Z,100901.28
2023-05-26T10:25:27.939Z,100905.69
2023-05-26T10:28:05.781Z,100903.09
2023-05-26T10:30:36.710Z,100900.19
2023-05-26T10:33:12.780Z,100894.09
2023-05-26T10:36:00.820Z,100898.75
2023-05-26T10:38:32.890Z,100904.41
2023-05-26T10:41:02.566Z,100904.09
2023-05-26T10:43:33.774Z,100907.44
2023-05-26T10:46:07.690Z,100900.91
2023-05-26T10:48:40.796Z,100897.41
2023-05-26T10:51:22.427Z,100901.72
2023-05-26T10:53:52.450Z,100908.09
2023-05-26T10:56:26.792Z,100901.53
2023-05-26T10:59:01.780Z,100908.00
2023-05-26T11:01:33.149Z,100906.25
2023-05-26T11:04:11.568Z,100900.25
2023-05-26T11:06:51.854Z,100895.75
2023-05-26T11:09:30.811Z,100893.28
2023-05-26T11:12:02.237Z,100885.34
2023-05-26T11:14:34.440Z,100888.53
2023-05-26T11:17:05.917Z,100876.91
2023-05-26T11:19:36.991Z,100879.97
2023-05-26T11:24:42.762Z,100871.38
2023-05-26T11:27:17.334Z,100872.28
2023-05-26T11:29:50.672Z,100873.34
2023-05-26T11:32:20.397Z,100869.00
2023-05-26T11:34:50.071Z,100868.84
2023-05-26T11:37:25.172Z,100872.06
2023-05-26T11:39:55.778Z,100874.78
2023-05-26T11:42:25.444Z,100870.94
2023-05-26T11:44:55.213Z,100881.75
2023-05-26T11:47:25.703Z,100881.38
2023-05-26T11:49:55.404Z,100875.81
2023-05-26T11:52:27.598Z,100869.78
2023-05-26T11:54:58.572Z,100870.63
2023-05-26T11:57:32.431Z,100872.44
2023-05-26T12:00:10.501Z,100857.59
2023-05-26T12:02:40.905Z,100854.66
2023-05-26T12:05:21.171Z,100856.69
2023-05-26T12:08:10.840Z,100858.47
2023-05-26T12:10:44.777Z,100854.97
2023-05-26T12:13:14.502Z,100839.19
2023-05-26T12:15:53.702Z,100856.19
2023-05-26T12:18:26.110Z,100847.19
2023-05-26T12:20:56.168Z,100845.22
2023-05-26T12:23:32.512Z,100843.38
2023-05-26T12:26:02.148Z,100841.22
2023-05-26T12:28:32.052Z,100828.63
2023-05-26T12:31:01.696Z,100835.75
2023-05-26T12:33:31.664Z,100823.72
2023-05-26T12:36:01.663Z,100817.19
2023-05-26T12:38:43.595Z,100815.94
2023-05-26T12:41:13.528Z,100821.06
2023-05-26T12:43:43.829Z,100815.59
2023-05-26T12:46:14.831Z,100812.97
2023-05-26T12:48:44.880Z,100819.19
2023-05-26T12:51:17.554Z,100824.41
2023-05-26T12:53:52.438Z,100819.84
2023-05-26T12:56:22.344Z,100821.84
2023-05-26T12:58:52.014Z,100815.38
2023-05-26T13:01:21.999Z,100824.13
2023-05-26T13:06:27.823Z,100821.56
2023-05-26T13:09:00.137Z,100813.81
2023-05-26T13:11:29.790Z,100823.69
2023-05-26T13:13:59.537Z,100822.66
2023-05-26T13:16:29.201Z,100813.41
2023-05-26T13:18:58.876Z,100814.38
2023-05-26T13:21:31.771Z,100814.56
2023-05-26T13:24:04.776Z,100804.25
2023-05-26T13:26:34.736Z,100801.16
2023-05-26T13:29:04.672Z,100792.22
2023-05-26T13:31:35.797Z,100798.81
2023-05-26T13:34:05.454Z,100789.25
2023-05-26T13:36:37.124Z,100793.03
2023-05-26T13:39:09.605Z,100791.66
2023-05-26T13:41:39.762Z,100790.31
2023-05-26T13:44:09.360Z,100789.44
2023-05-26T13:46:39.760Z,100786.97
2023-05-26T13:49:10.248Z,100793.91
2023-05-26T13:51:39.893Z,100804.03
2023-05-26T13:54:12.074Z,100796.72
2023-05-26T13:56:42.777Z,100795.03
2023-05-26T13:59:12.437Z,100796.84
2023-05-26T14:01:42.770Z,100809.13
2023-05-26T14:04:13.153Z,100800.50
2023-05-26T14:06:42.924Z,100796.66
2023-05-26T14:09:15.178Z,100791.75
2023-05-26T14:11:44.853Z,100796.97
2023-05-26T14:14:14.505Z,100800.97
2023-05-26T14:16:44.262Z,100801.59
2023-05-26T14:19:18.911Z,100810.34
2023-05-26T14:22:09.181Z,100801.84
2023-05-26T14:24:44.893Z,100798.00
2023-05-26T14:27:14.902Z,100801.34
2023-05-26T14:29:44.533Z,100804.09
2023-05-26T14:32:16.162Z,100794.16
2023-05-26T14:34:46.292Z,100793.34
2023-05-26T14:37:16.769Z,100787.91
2023-05-26T14:39:49.068Z,100790.47
2023-05-26T14:42:18.755Z,100799.94
2023-05-26T14:44:49.640Z,100794.66
2023-05-26T14:47:19.977Z,100778.19
2023-05-26T14:49:50.787Z,100787.50
2023-05-26T14:52:20.415Z,100786.69
2023-05-26T14:54:52.661Z,100779.34
2023-05-26T14:57:22.929Z,100782.97
2023-05-26T14:59:52.640Z,100779.28
2023-05-26T15:02:23.416Z,100779.59
2023-05-26T15:04:53.160Z,100780.81
2023-05-26T15:07:23.092Z,100784.06
2023-05-26T15:09:55.382Z,100784.94
2023-05-26T15:12:25.301Z,100778.59
2023-05-26T15:14:54.930Z,100783.59
2023-05-26T15:17:24.824Z,100777.72
2023-05-26T15:19:54.457Z,100778.28
2023-05-26T15:22:24.110Z,100786.38
2023-05-26T15:24:56.418Z,100784.81
2023-05-26T15:27:27.909Z,100774.41
2023-05-26T15:29:57.546Z,100789.19
2023-05-26T15:32:27.912Z,100789.63
2023-05-26T15:34:57.642Z,100779.13
2023-05-26T15:37:29.207Z,100778.31
2023-05-26T15:40:02.983Z,100773.09
2023-05-26T15:42:32.971Z,100781.06
2023-05-26T15:45:07.770Z,100765.47
2023-05-26T15:47:37.814Z,100774.41
2023-05-26T15:50:08.775Z,100769.72
2023-05-26T15:52:39.767Z,100769.72
2023-05-26T15:55:15.203Z,100775.13
2023-05-26T15:57:45.145Z,100758.41
2023-05-26T16:00:17.790Z,100773.53
2023-05-26T16:02:47.517Z,100765.25
2023-05-26T16:05:17.127Z,100762.94
2023-05-26T16:07:46.883Z,100765.31
2023-05-26T16:10:19.359Z,100771.00
2023-05-26T16:12:48.970Z,100765.00
2023-05-26T16:15:20.996Z,100767.53
2023-05-26T16:17:52.501Z,100755.03
2023-05-26T16:20:22.248Z,100770.72
2023-05-26T16:22:52.102Z,100770.16
2023-05-26T16:25:24.629Z,100762.34
2023-05-26T16:27:54.520Z,100748.03
2023-05-26T16:30:24.249Z,100756.91
2023-05-26T16:32:53.931Z,100766.75
2023-05-26T16:35:23.805Z,100763.38
2023-05-26T16:37:53.566Z,100754.50
2023-05-26T16:40:27.964Z,100755.91
2023-05-26T16:42:57.610Z,100742.16
2023-05-26T16:45:27.807Z,100751.81
2023-05-26T16:47:58.589Z,100763.69
2023-05-26T16:50:29.203Z,100753.63
2023-05-26T16:52:58.881Z,100765.13
2023-05-26T16:55:33.642Z,100762.13
2023-05-26T16:58:04.782Z,100755.84
2023-05-26T17:00:34.454Z,100764.66
2023-05-26T17:03:04.172Z,100763.84
2023-05-26T17:05:33.900Z,100759.66
2023-05-26T17:08:03.790Z,100770.38
2023-05-26T17:10:36.824Z,100761.63
2023-05-26T17:13:06.433Z,100760.09
2023-05-26T17:15:36.077Z,100762.03
2023-05-26T17:18:05.927Z,100763.06
2023-05-26T17:20:38.817Z,100768.47
2023-05-26T17:23:10.037Z,100765.75
2023-05-26T17:25:45.987Z,100763.41
2023-05-26T17:28:16.815Z,100768.09
2023-05-26T17:30:46.562Z,100760.38
2023-05-26T17:33:18.663Z,100769.28
2023-05-26T17:35:48.323Z,100773.94
2023-05-26T17:38:18.312Z,100775.91
2023-05-26T17:40:51.987Z,100770.72
2023-05-26T17:43:21.728Z,100770.03
2023-05-26T17:45:51.437Z,100776.44
2023-05-26T17:48:21.059Z,100770.41
2023-05-26T17:50:51.765Z,100777.75
2023-05-26T17:53:22.140Z,100778.75
2023-05-26T17:55:57.778Z,100778.09
2023-05-26T17:58:27.421Z,100775.63
2023-05-26T18:00:58.277Z,100786.53
2023-05-26T18:03:28.476Z,100781.47
2023-05-26T18:05:58.227Z,100785.16
2023-05-26T18:08:30.524Z,100791.56
2023-05-26T18:11:06.418Z,100790.00
2023-05-26T18:13:37.775Z,100795.50
2023-05-26T18:16:07.847Z,100805.50
2023-05-26T18:18:37.584Z,100799.47
2023-05-26T18:21:09.397Z,100798.78
2023-05-26T18:23:38.996Z,100798.09
2023-05-26T18:26:11.356Z,100810.63
2023-05-26T18:28:40.999Z,100811.66
2023-05-26T18:31:12.316Z,100815.34
2023-05-26T18:33:42.784Z,100812.81
2023-05-26T18:36:12.446Z,100816.63
2023-05-26T18:38:42.774Z,100818.63
2023-05-26T18:41:15.747Z,100829.44
2023-05-26T18:43:45.429Z,100829.59
2023-05-26T18:46:15.154Z,100827.91
2023-05-26T18:48:44.856Z,100845.69
2023-05-26T18:51:15.880Z,100837.03
2023-05-26T18:53:45.532Z,100840.72
2023-05-26T18:56:17.746Z,100834.63
2023-05-26T18:58:47.585Z,100846.28
2023-05-26T19:01:17.810Z,100840.22
2023-05-26T19:03:50.896Z,100848.25
2023-05-26T19:06:22.976Z,100851.00
2023-05-26T19:08:52.757Z,100845.84
2023-05-26T19:11:27.792Z,100845.03
2023-05-26T19:13:57.404Z,100852.19
2023-05-26T19:16:27.888Z,100863.72
2023-05-26T19:18:58.187Z,100854.94
2023-05-26T19:21:33.748Z,100862.13
2023-05-26T19:24:05.283Z,100867.47
2023-05-26T19:26:41.766Z,100860.44
2023-05-26T19:29:12.427Z,100869.41
2023-05-26T19:31:42.176Z,100872.16
2023-05-26T19:34:13.146Z,100875.75
2023-05-26T19:36:43.478Z,100865.22
2023-05-26T19:39:15.373Z,100874.97
2023-05-26T19:41:49.763Z,100876.75
2023-05-26T19:44:20.609Z,100876.81
2023-05-26T19:46:52.804Z,100883.88
2023-05-26T19:49:22.581Z,100885.66
2023-05-26T19:51:52.291Z,100879.53
2023-05-26T19:54:21.936Z,100887.47
2023-05-26T19:56:54.993Z,100891.91
2023-05-26T19:59:24.770Z,100896.34
2023-05-26T20:01:54.505Z,100898.13
2023-05-26T20:04:25.949Z,100901.66
2023-05-26T20:06:56.839Z,100906.94
2023-05-26T20:09:26.533Z,100906.06
2023-05-26T20:11:58.728Z,100911.38
2023-05-26T20:14:28.787Z,100906.06
2023-05-26T20:16:58.837Z,100908.69
2023-05-26T20:19:28.736Z,100901.63
2023-05-26T20:21:58.437Z,100921.91
2023-05-26T20:24:28.346Z,100919.25
2023-05-26T20:27:00.543Z,100921.88
2023-05-26T20:29:30.457Z,100928.03
2023-05-26T20:32:02.476Z,100919.19
2023-05-26T20:34:32.786Z,100929.72
2023-05-26T20:37:02.430Z,100927.97
2023-05-26T20:39:32.745Z,100931.50
2023-05-26T20:42:05.262Z,100935.00
2023-05-26T20:44:35.742Z,100938.50
2023-05-26T20:47:06.797Z,100934.97
2023-05-26T20:49:36.418Z,100949.03
2023-05-26T20:52:06.389Z,100948.09
2023-05-26T20:54:36.123Z,100948.09
2023-05-26T20:57:09.870Z,100953.34
2023-05-26T20:59:42.754Z,100948.00
2023-05-26T21:02:13.017Z,100947.13
2023-05-26T21:04:42.814Z,100949.72
2023-05-26T21:07:12.773Z,100950.56
2023-05-26T21:09:42.425Z,100958.47
2023-05-26T21:12:15.842Z,100953.09
2023-05-26T21:14:46.683Z,100946.03
2023-05-26T21:17:16.661Z,100947.75
2023-05-26T21:19:48.157Z,100946.03
2023-05-26T21:22:17.905Z,100947.81
2023-05-26T21:24:47.777Z,100948.75
2023-05-26T21:27:20.056Z,100948.75
2023-05-26T21:29:52.798Z,100950.47
2023-05-26T21:32:22.527Z,100949.66
2023-05-26T21:34:52.742Z,100955.72
2023-05-26T21:37:22.530Z,100964.50
2023-05-26T21:39:52.359Z,100952.97
2023-05-26T21:42:24.772Z,100962.63
2023-05-26T21:44:54.737Z,100966.06
2023-05-26T21:47:25.129Z,100968.66
2023-05-26T21:49:54.752Z,100978.31
2023-05-26T21:52:24.980Z,100972.13
2023-05-26T21:54:55.777Z,100978.22
2023-05-26T21:57:28.032Z,100970.31
2023-05-26T21:59:58.751Z,100974.75
2023-05-26T22:02:29.790Z,100979.91
2023-05-26T22:04:59.512Z,100985.16
2023-05-26T22:07:29.119Z,100985.03
2023-05-26T22:09:59.751Z,100988.44
2023-05-26T22:12:32.149Z,100989.31
2023-05-26T22:15:02.745Z,100991.88
2023-05-26T22:17:32.457Z,100983.03
2023-05-26T22:20:02.796Z,100991.81
2023-05-26T22:22:32.521Z,100984.75
2023-05-26T22:25:02.184Z,100992.69
2023-05-26T22:27:34.403Z,100989.09
2023-05-26T22:30:04.265Z,100983.78
2023-05-26T22:32:34.077Z,100999.75
2023-05-26T22:35:04.813Z,100989.94
2023-05-26T22:37:34.409Z,100999.53
2023-05-26T22:40:04.588Z,101002.25
2023-05-26T22:42:36.839Z,101003.88
2023-05-26T22:45:07.774Z,101009.16
2023-05-26T22:47:37.382Z,101011.75
2023-05-26T22:50:10.719Z,101009.91
2023-05-26T22:52:40.686Z,101018.53
2023-05-26T22:55:11.376Z,101013.31
2023-05-26T22:57:43.938Z,101010.56
2023-05-26T23:00:14.990Z,101013.28
2023-05-26T23:02:44.897Z,101012.44
2023-05-26T23:05:14.582Z,101014.91
2023-05-26T23:07:44.489Z,101019.97
2023-05-26T23:10:14.323Z,101017.19
2023-05-26T23:12:46.739Z,101023.13
2023-05-26T23:15:16.946Z,101017.06
2023-05-26T23:17:47.891Z,101015.13
2023-05-26T23:20:17.896Z,101019.41
2023-05-26T23:22:47.767Z,101021.88
2023-05-26T23:25:18.379Z,101027.00
2023-05-26T23:27:51.756Z,101024.13
2023-05-26T23:30:21.818Z,101029.25
2023-05-26T23:32:51.537Z,101029.03
2023-05-26T23:35:21.168Z,101021.00
2023-05-26T23:37:52.753Z,101029.56
2023-05-26T23:40:28.698Z,101020.69
2023-05-26T23:43:02.762Z,101026.72
2023-05-26T23:45:32.375Z,101024.81
2023-05-26T23:48:05.835Z,101030.00
2023-05-26T23:50:35.495Z,101029.94
2023-05-26T23:53:06.226Z,101026.47
2023-05-26T23:55:36.260Z,101030.72
2023-05-26T23:58:08.653Z,101034.00
